createdAt,value
2023-01-10T00:00:49.097Z,4.00
2023-01-10T00:03:16.282Z,4.10
2023-01-10T00:05:43.376Z,4.10
2023-01-10T00:08:15.947Z,4.10
2023-01-10T00:10:43.087Z,4.10
2023-01-10T00:13:23.634Z,4.10
2023-01-10T00:15:55.616Z,4.20
2023-01-10T00:18:23.310Z,4.20
2023-01-10T00:20:50.635Z,4.10
2023-01-10T00:23:18.588Z,4.20
2023-01-10T00:25:46.576Z,4.20
2023-01-10T00:28:23.804Z,4.20
2023-01-10T00:30:55.319Z,4.20
2023-01-10T00:33:22.817Z,4.20
2023-01-10T00:35:49.921Z,4.20
2023-01-10T00:38:17.029Z,4.30
2023-01-10T00:40:45.292Z,4.30
2023-01-10T00:43:31.566Z,4.40
2023-01-10T00:45:58.739Z,4.40
2023-01-10T00:48:25.906Z,4.40
2023-01-10T00:50:52.997Z,4.50
2023-01-10T00:53:20.147Z,4.50
2023-01-10T00:55:47.232Z,4.60
2023-01-10T00:58:15.886Z,4.80
2023-01-10T01:00:47.076Z,4.80
2023-01-10T01:03:14.303Z,4.80
2023-01-10T01:05:45.908Z,4.80
2023-01-10T01:08:14.345Z,4.70
2023-01-10T01:10:41.712Z,5.00
2023-01-10T01:13:27.067Z,5.00
2023-01-10T01:15:57.517Z,4.90
2023-01-10T01:18:24.891Z,4.90
2023-01-10T01:20:57.229Z,4.90
2023-01-10T01:23:24.935Z,4.80
2023-01-10T01:25:53.447Z,4.80
2023-01-10T01:28:21.875Z,4.80
2023-01-10T01:30:49.697Z,4.80
2023-01-10T01:33:18.014Z,4.80
2023-01-10T01:35:46.748Z,4.70
2023-01-10T01:38:14.939Z,4.70
2023-01-10T01:40:42.072Z,4.70
2023-01-10T01:43:32.016Z,4.70
2023-01-10T01:46:03.720Z,4.70
2023-01-10T01:48:39.370Z,4.80
2023-01-10T01:51:20.628Z,4.80
2023-01-10T01:54:12.241Z,4.80
2023-01-10T01:56:44.069Z,4.70
2023-01-10T01:59:25.205Z,4.80
2023-01-10T02:04:32.063Z,4.80
2023-01-10T02:11:59.626Z,4.80
2023-01-10T02:14:27.065Z,4.90
2023-01-10T02:44:53.849Z,4.70
2023-01-10T02:47:20.929Z,4.70
2023-01-10T02:51:02.356Z,4.70
2023-01-10T02:53:41.742Z,4.70
2023-01-10T02:56:54.996Z,4.70
2023-01-10T03:00:11.128Z,4.60
2023-01-10T03:03:01.738Z,4.70
2023-01-10T03:06:11.589Z,4.60
2023-01-10T03:08:55.029Z,4.70
2023-01-10T03:11:40.444Z,4.60
2023-01-10T03:14:14.445Z,4.70
2023-01-10T03:16:46.651Z,4.70
2023-01-10T03:19:19.926Z,4.60
2023-01-10T03:21:49.427Z,4.70
2023-01-10T03:24:19.475Z,4.70
2023-01-10T03:27:09.854Z,4.70
2023-01-10T03:30:10.934Z,4.70
2023-01-10T03:32:38.377Z,4.60
2023-01-10T03:35:06.599Z,4.70
2023-01-10T03:37:56.624Z,4.60
2023-01-10T03:43:28.892Z,4.60
2023-01-10T03:46:01.943Z,4.60
2023-01-10T03:48:32.338Z,4.50
2023-01-10T03:51:02.852Z,4.60
2023-01-10T03:53:31.376Z,4.60
2023-01-10T03:55:58.509Z,4.50
2023-01-10T03:58:26.413Z,4.50
2023-01-10T04:00:53.565Z,4.60
2023-01-10T04:03:20.762Z,4.50
2023-01-10T04:05:47.796Z,4.50
2023-01-10T04:08:15.156Z,4.50
2023-01-10T04:10:42.295Z,4.50
2023-01-10T04:16:22.108Z,4.50
2023-01-10T04:18:49.309Z,4.40
2023-01-10T04:21:16.499Z,4.30
2023-01-10T04:23:43.845Z,4.30
2023-01-10T04:26:10.967Z,4.30
2023-01-10T04:28:38.101Z,4.30
2023-01-10T04:31:05.481Z,4.30
2023-01-10T04:33:32.618Z,4.30
2023-01-10T04:35:59.686Z,4.30
2023-01-10T04:38:26.756Z,4.30
2023-01-10T04:40:55.500Z,4.40
2023-01-10T04:43:23.913Z,4.50
2023-01-10T04:45:51.590Z,4.50
2023-01-10T04:48:19.482Z,4.40
2023-01-10T04:50:51.114Z,4.30
2023-01-10T04:53:19.291Z,4.30
2023-01-10T04:55:46.958Z,4.40
2023-01-10T04:58:14.160Z,4.30
2023-01-10T05:03:20.460Z,4.40
2023-01-10T05:05:47.538Z,4.50
2023-01-10T05:08:14.582Z,4.50
2023-01-10T05:10:41.898Z,4.50
2023-01-10T05:13:08.985Z,4.40
2023-01-10T05:15:36.085Z,4.40
2023-01-10T05:18:03.221Z,4.40
2023-01-10T05:20:30.334Z,4.30
2023-01-10T05:22:57.416Z,4.30
2023-01-10T05:25:24.521Z,4.40
2023-01-10T05:27:51.572Z,4.50
2023-01-10T05:30:18.942Z,4.40
2023-01-10T05:32:46.049Z,4.40
2023-01-10T05:35:13.203Z,4.50
2023-01-10T05:37:40.412Z,4.50
2023-01-10T05:40:08.639Z,4.40
2023-01-10T05:42:35.748Z,4.50
2023-01-10T05:45:03.505Z,4.50
2023-01-10T05:47:30.819Z,4.40
2023-01-10T05:50:37.149Z,4.50
2023-01-10T05:53:06.030Z,4.50
2023-01-10T05:55:33.633Z,4.50
2023-01-10T05:58:00.772Z,4.50
2023-01-10T06:00:28.179Z,4.50
2023-01-10T06:02:56.661Z,4.40
2023-01-10T06:05:24.736Z,4.30
2023-01-10T06:07:52.148Z,4.30
2023-01-10T06:10:19.249Z,4.30
2023-01-10T06:12:47.193Z,4.30
2023-01-10T06:15:14.302Z,4.30
2023-01-10T06:17:41.419Z,4.30
2023-01-10T06:20:09.504Z,4.20
2023-01-10T06:22:36.612Z,4.20
2023-01-10T06:25:03.816Z,4.20
2023-01-10T06:27:30.895Z,4.20
2023-01-10T06:29:59.703Z,4.10
2023-01-10T06:32:27.186Z,4.10
2023-01-10T06:34:54.309Z,4.10
2023-01-10T06:37:21.475Z,4.10
2023-01-10T06:39:48.558Z,4.10
2023-01-10T06:42:15.784Z,4.10
2023-01-10T06:44:42.885Z,4.00
2023-01-10T06:47:10.195Z,4.00
2023-01-10T06:49:37.262Z,4.10
2023-01-10T06:52:04.602Z,4.00
2023-01-10T06:54:31.677Z,4.00
2023-01-10T06:56:58.868Z,4.00
2023-01-10T06:59:25.953Z,4.00
2023-01-10T07:01:53.139Z,3.90
2023-01-10T07:06:32.680Z,3.90
2023-01-10T07:08:59.845Z,3.90
2023-01-10T07:11:26.940Z,4.00
2023-01-10T07:13:54.171Z,4.10
2023-01-10T07:16:21.439Z,4.00
2023-01-10T07:18:48.602Z,4.00
2023-01-10T07:21:17.083Z,4.00
2023-01-10T07:23:44.242Z,4.10
2023-01-10T07:26:12.053Z,4.10
2023-01-10T07:28:39.372Z,4.10
2023-01-10T07:33:16.521Z,4.20
2023-01-10T07:37:47.024Z,4.20
2023-01-10T07:40:14.511Z,4.10
2023-01-10T07:42:41.595Z,4.10
2023-01-10T07:45:09.513Z,4.10
2023-01-10T07:47:36.591Z,4.10
2023-01-10T07:50:04.059Z,4.10
2023-01-10T07:52:32.659Z,4.10
2023-01-10T07:54:59.806Z,4.10
2023-01-10T07:57:26.904Z,4.10
2023-01-10T07:59:54.315Z,4.10
2023-01-10T08:02:21.563Z,4.10
2023-01-10T08:04:48.782Z,4.10
2023-01-10T08:07:15.874Z,4.10
2023-01-10T08:09:43.006Z,4.10
2023-01-10T08:12:10.055Z,4.10
2023-01-10T08:14:37.524Z,4.10
2023-01-10T08:17:04.629Z,4.10
2023-01-10T08:19:31.720Z,4.10
2023-01-10T08:21:58.838Z,4.10
2023-01-10T08:24:25.914Z,4.10
2023-01-10T08:26:53.014Z,4.20
2023-01-10T08:29:20.132Z,4.30
2023-01-10T08:31:47.190Z,4.40
2023-01-10T08:34:14.769Z,4.30
2023-01-10T08:36:41.928Z,4.40
2023-01-10T08:39:09.294Z,4.40
2023-01-10T08:41:36.527Z,4.50
2023-01-10T08:44:03.805Z,4.60
2023-01-10T08:48:58.548Z,4.40
2023-01-10T08:51:25.689Z,4.50
2023-01-10T08:53:52.894Z,4.50
2023-01-10T08:56:19.982Z,4.50
2023-01-10T08:58:47.298Z,4.60
2023-01-10T09:01:14.757Z,4.50
2023-01-10T09:03:41.982Z,4.50
2023-01-10T09:06:09.527Z,4.50
2023-01-10T09:08:37.057Z,4.70
2023-01-10T09:11:04.902Z,4.80
2023-01-10T09:13:32.466Z,4.70
2023-01-10T09:16:00.091Z,4.80
2023-01-10T09:18:27.868Z,4.80
2023-01-10T09:20:55.021Z,4.80
2023-01-10T09:23:23.621Z,4.70
2023-01-10T09:25:53.501Z,4.80
2023-01-10T09:28:22.387Z,4.80
2023-01-10T09:30:49.555Z,4.80
2023-01-10T09:33:17.023Z,4.80
2023-01-10T09:35:44.425Z,5.00
2023-01-10T09:38:17.599Z,5.00
2023-01-10T09:41:14.145Z,5.00
2023-01-10T09:44:04.207Z,5.00
2023-01-10T09:47:21.709Z,5.00
2023-01-10T09:50:38.527Z,5.10
2023-01-10T09:53:18.433Z,5.00
2023-01-10T09:58:17.837Z,5.10
2023-01-10T10:00:54.331Z,4.90
2023-01-10T10:06:34.862Z,4.60
2023-01-10T10:09:04.770Z,4.70
2023-01-10T10:12:21.439Z,4.80
2023-01-10T10:15:27.533Z,5.00
2023-01-10T10:18:23.755Z,5.10
2023-01-10T10:21:35.360Z,5.30
2023-01-10T10:24:42.855Z,5.40
2023-01-10T10:27:41.122Z,5.50
2023-01-10T10:30:36.345Z,5.50
2023-01-10T10:33:49.010Z,5.50
2023-01-10T10:36:24.106Z,5.40
2023-01-10T10:38:53.492Z,5.50
2023-01-10T10:41:40.528Z,5.40
2023-01-10T10:44:27.601Z,5.60
2023-01-10T10:46:57.183Z,5.80
2023-01-10T10:49:38.858Z,6.00
2023-01-10T10:52:23.252Z,6.60
2023-01-10T10:54:50.832Z,7.10
2023-01-10T10:57:19.089Z,7.00
2023-01-10T10:59:49.650Z,7.10
2023-01-10T11:02:39.155Z,7.10
2023-01-10T11:05:14.577Z,7.10
2023-01-10T11:07:41.730Z,7.50
2023-01-10T11:10:39.227Z,8.00
2023-01-10T11:13:39.966Z,8.90
2023-01-10T11:16:08.026Z,9.30
2023-01-10T11:18:38.461Z,9.60
2023-01-10T11:21:11.657Z,10.70
2023-01-10T11:23:52.319Z,8.90
2023-01-10T11:26:34.545Z,9.40
2023-01-10T11:29:08.663Z,9.20
2023-01-10T11:31:37.982Z,9.40
2023-01-10T11:34:17.208Z,9.70
2023-01-10T11:37:32.998Z,9.00
2023-01-10T11:40:26.921Z,10.00
2023-01-10T11:42:58.881Z,10.20
2023-01-10T11:45:29.910Z,9.80
2023-01-10T11:48:10.385Z,10.10
2023-01-10T11:50:43.265Z,10.10
2023-01-10T11:53:35.183Z,10.00
2023-01-10T11:56:03.608Z,10.10
2023-01-10T11:58:33.034Z,9.50
2023-01-10T12:02:57.945Z,8.80
2023-01-10T12:05:25.133Z,8.70
2023-01-10T12:08:01.646Z,9.10
2023-01-10T12:10:29.361Z,9.40
2023-01-10T12:12:58.925Z,10.00
2023-01-10T12:15:31.282Z,10.00
2023-01-10T12:18:01.394Z,9.30
2023-01-10T12:20:31.323Z,9.20
2023-01-10T12:23:35.787Z,9.50
2023-01-10T12:26:11.501Z,9.60
2023-01-10T12:28:44.069Z,9.80
2023-01-10T12:31:15.235Z,9.80
2023-01-10T12:33:48.828Z,9.70
2023-01-10T12:36:56.156Z,10.10
2023-01-10T12:39:30.423Z,10.10
2023-01-10T12:48:12.993Z,10.30
2023-01-10T12:50:44.795Z,10.30
2023-01-10T12:53:43.852Z,9.80
2023-01-10T12:56:15.003Z,9.80
2023-01-10T13:05:03.198Z,9.20
2023-01-10T13:07:34.526Z,9.70
2023-01-10T13:10:06.560Z,10.30
2023-01-10T13:12:47.411Z,10.10
2023-01-10T13:15:24.669Z,9.80
2023-01-10T13:20:29.357Z,10.20
2023-01-10T13:22:58.976Z,10.10
2023-01-10T13:25:36.061Z,9.90
2023-01-10T13:28:24.785Z,9.30
2023-01-10T13:30:54.361Z,9.30
2023-01-10T13:33:25.011Z,8.90
2023-01-10T13:35:54.517Z,8.70
2023-01-10T13:38:49.608Z,8.90
2023-01-10T13:41:36.005Z,9.20
2023-01-10T13:44:09.874Z,9.70
2023-01-10T13:46:50.028Z,9.50
2023-01-10T14:30:36.939Z,7.40
2023-01-10T14:37:59.014Z,7.40
2023-01-10T14:40:47.655Z,7.50
2023-01-10T14:43:18.948Z,7.40
2023-01-10T15:05:09.616Z,7.30
2023-01-10T15:07:38.344Z,7.30
2023-01-10T15:10:41.596Z,7.20
2023-01-10T15:16:35.092Z,7.20
2023-01-10T15:19:02.931Z,7.10
2023-01-10T15:21:30.462Z,7.10
2023-01-10T15:23:57.633Z,7.40
2023-01-10T15:26:34.325Z,7.60
2023-01-10T15:29:13.287Z,8.20
2023-01-10T15:31:41.583Z,7.90
2023-01-10T15:34:35.320Z,7.40
2023-01-10T15:37:03.250Z,7.40
2023-01-10T15:39:41.100Z,7.70
2023-01-10T15:42:10.329Z,7.50
2023-01-10T15:44:41.307Z,7.20
2023-01-10T15:47:52.749Z,7.20
2023-01-10T15:50:28.626Z,7.10
2023-01-10T15:53:01.599Z,7.00
2023-01-10T15:55:55.295Z,6.80
2023-01-10T15:58:36.021Z,6.80
2023-01-10T16:01:04.877Z,6.70
2023-01-10T16:03:36.751Z,6.70
2023-01-10T16:06:09.179Z,6.70
2023-01-10T16:08:38.594Z,6.60
2023-01-10T16:11:08.897Z,6.50
2023-01-10T16:13:37.569Z,6.50
2023-01-10T16:16:15.557Z,6.50
2023-01-10T16:18:42.771Z,6.50
2023-01-10T16:21:11.659Z,6.50
2023-01-10T16:23:46.141Z,6.50
2023-01-10T16:26:13.432Z,6.30
2023-01-10T16:28:40.541Z,6.30
2023-01-10T16:31:11.873Z,6.20
2023-01-10T16:33:38.991Z,6.20
2023-01-10T16:36:16.524Z,6.30
2023-01-10T16:38:44.210Z,6.30
2023-01-10T16:41:31.285Z,6.30
2023-01-10T16:43:58.779Z,6.30
2023-01-10T16:46:25.930Z,6.20
2023-01-10T16:48:54.986Z,6.20
2023-01-10T16:51:25.546Z,6.20
2023-01-10T16:53:52.751Z,6.20
2023-01-10T16:56:21.871Z,6.10
2023-01-10T16:58:50.299Z,6.10
2023-01-10T17:01:28.975Z,6.20
2023-01-10T17:03:57.179Z,6.20
2023-01-10T17:06:24.379Z,6.20
2023-01-10T17:08:51.505Z,6.20
2023-01-10T17:11:26.707Z,6.30
2023-01-10T17:13:54.550Z,6.30
2023-01-10T17:16:21.841Z,6.20
2023-01-10T17:18:49.134Z,6.20
2023-01-10T17:21:19.473Z,6.30
2023-01-10T17:23:47.236Z,6.20
2023-01-10T17:26:15.626Z,6.20
2023-01-10T17:28:44.971Z,6.30
2023-01-10T17:31:12.178Z,6.20
2023-01-10T17:33:39.350Z,6.20
2023-01-10T17:36:07.036Z,6.20
2023-01-10T17:38:34.208Z,6.20
2023-01-10T17:41:02.245Z,6.30
2023-01-10T17:43:30.773Z,6.30
2023-01-10T17:46:01.037Z,6.20
2023-01-10T17:48:28.287Z,6.20
2023-01-10T17:50:58.638Z,6.20
2023-01-10T17:53:26.476Z,6.20
2023-01-10T17:55:54.009Z,6.20
2023-01-10T17:58:22.088Z,6.20
2023-01-10T18:00:49.541Z,6.20
2023-01-10T18:03:17.084Z,6.20
2023-01-10T18:05:56.168Z,6.20
2023-01-10T18:08:23.827Z,6.20
2023-01-10T18:10:51.426Z,6.20
2023-01-10T18:13:20.802Z,6.20
2023-01-10T18:15:49.407Z,6.20
2023-01-10T18:18:16.938Z,6.20
2023-01-10T18:20:44.827Z,6.30
2023-01-10T18:23:22.831Z,6.20
2023-01-10T18:26:01.327Z,6.20
2023-01-10T18:28:40.421Z,6.20
2023-01-10T18:31:13.783Z,6.20
2023-01-10T18:33:41.084Z,6.10
2023-01-10T18:36:14.350Z,6.20
2023-01-10T18:38:41.876Z,6.10
2023-01-10T18:41:09.182Z,6.20
2023-01-10T18:43:36.333Z,6.10
2023-01-10T18:46:10.979Z,6.10
2023-01-10T18:48:38.645Z,6.20
2023-01-10T18:51:05.998Z,6.20
2023-01-10T18:53:33.560Z,6.20
2023-01-10T18:56:04.504Z,6.20
2023-01-10T18:58:34.487Z,6.20
2023-01-10T19:01:12.803Z,6.20
2023-01-10T19:03:40.248Z,6.20
2023-01-10T19:06:11.138Z,6.20
2023-01-10T19:08:39.508Z,6.20
2023-01-10T19:11:13.766Z,6.20
2023-01-10T19:13:42.110Z,6.30
2023-01-10T19:16:17.704Z,6.20
2023-01-10T19:18:48.730Z,6.20
2023-01-10T19:21:16.104Z,6.20
2023-01-10T19:23:44.874Z,6.20
2023-01-10T19:26:12.549Z,6.20
2023-01-10T19:28:39.734Z,6.20
2023-01-10T19:31:07.015Z,6.20
2023-01-10T19:33:35.092Z,6.20
2023-01-10T19:36:08.949Z,6.30
2023-01-10T19:38:36.250Z,6.30
2023-01-10T19:41:03.892Z,6.20
2023-01-10T19:43:31.185Z,6.30
2023-01-10T19:45:58.399Z,6.30
2023-01-10T19:48:25.614Z,6.30
2023-01-10T19:50:52.767Z,6.20
2023-01-10T19:53:27.155Z,6.30
2023-01-10T19:56:02.376Z,6.20
2023-01-10T19:58:29.828Z,6.20
2023-01-10T20:00:56.967Z,6.30
2023-01-10T20:03:24.209Z,6.30
2023-01-10T20:05:51.331Z,6.30
2023-01-10T20:08:18.458Z,6.20
2023-01-10T20:10:45.575Z,6.30
2023-01-10T20:13:12.741Z,6.20
2023-01-10T20:15:39.864Z,6.20
2023-01-10T20:18:07.090Z,6.30
2023-01-10T20:20:34.315Z,6.30
2023-01-10T20:23:01.514Z,6.30
2023-01-10T20:25:28.616Z,6.30
2023-01-10T20:27:55.730Z,6.30
2023-01-10T20:30:22.798Z,6.30
2023-01-10T20:32:50.271Z,6.40
2023-01-10T20:35:17.726Z,6.40
2023-01-10T20:37:44.861Z,6.50
2023-01-10T20:40:12.629Z,6.40
2023-01-10T20:42:40.883Z,6.40
2023-01-10T20:45:08.849Z,6.50
2023-01-10T20:47:35.967Z,6.40
2023-01-10T20:50:03.212Z,6.50
2023-01-10T20:52:30.373Z,6.50
2023-01-10T20:54:57.492Z,6.50
2023-01-10T20:57:24.695Z,6.50
2023-01-10T20:59:51.830Z,6.50
2023-01-10T21:02:19.001Z,6.50
2023-01-10T21:04:46.180Z,6.50
2023-01-10T21:07:13.562Z,6.50
2023-01-10T21:09:41.106Z,6.50
2023-01-10T21:12:22.106Z,6.50
2023-01-10T21:14:50.632Z,6.50
2023-01-10T21:17:17.776Z,6.50
2023-01-10T21:19:44.962Z,6.50
2023-01-10T21:22:12.123Z,6.50
2023-01-10T21:24:39.336Z,6.50
2023-01-10T21:28:49.148Z,6.60
2023-01-10T21:31:19.347Z,6.50
2023-01-10T21:36:14.287Z,6.50
2023-01-10T21:46:13.086Z,6.50
2023-01-10T21:51:07.824Z,6.60
2023-01-10T21:53:34.944Z,6.50
2023-01-10T22:00:59.097Z,6.60
2023-01-10T23:44:36.936Z,6.60
2023-01-10T23:47:04.239Z,6.60
2023-01-10T23:49:31.257Z,6.60
2023-01-10T23:51:58.301Z,6.60
2023-01-10T23:54:25.339Z,6.60
2023-01-10T23:56:53.707Z,6.60
2023-01-10T23:59:21.817Z,6.60
